Zagazig, Egypt
Current Conditions -  °F | °C
As of 4:30 PM on Tuesday 27 Jan 2015 (Local Time) from HECA Reporting Station
Clear Clear  
Wind Chill: 70°   Ceiling: Unl
Heat Index: 70°   Visibility: 6mi
Dew Point: 41°   Wind: 5mph
Humidity: 35%   Direction: 350°N
Pressure: 29.88"   Gusts: NA
Location:  30.58°N, 31.48°E
Report Text: HECA 271430Z 35004KT CAVOK 21/05 Q1012 NOSIG
Loading
Personal Weather Stations






























Interactive Weather Map New forecast layout! Learn more

10-Day Weather Forecast

Advertisements
Track Severe Weather on mobile